Time;durP1;ratioP1;P1;durP2;ratioP2;P2;SDS_P1;SDS_P2;PMS_P1;PMS_P2;Temp;Humidity;BMP_temperature;BMP_pressure;BME280_temperature;BME280_humidity;BME280_pressure;Samples;Min_cycle;Max_cycle;Signal;HPM_P1;HPM_P2
2022/10/13 00:02:10;;;;;;;5.65;5.40;;;;;;;;;;5004720;28;20393;-72
2022/10/13 00:04:35;;;;;;;5.20;5.00;;;;;;;;;;5000633;28;20576;-71
2022/10/13 00:07:01;;;;;;;5.07;4.88;;;;;;;;;;5003010;28;20030;-72
2022/10/13 00:09:27;;;;;;;5.00;4.80;;;;;;;;;;5003182;28;20086;-71
2022/10/13 00:11:56;;;;;;;4.82;4.63;;;;;;;;;;5004281;28;20049;-72
2022/10/13 00:14:22;;;;;;;4.82;4.63;;;;;;;;;;5006894;28;20057;-72
2022/10/13 00:16:47;;;;;;;4.97;4.78;;;;;;;;;;5011092;28;20376;-72
2022/10/13 00:19:13;;;;;;;4.72;4.53;;;;;;;;;;5005813;28;20029;-71
2022/10/13 00:21:39;;;;;;;4.88;4.68;;;;;;;;;;5006737;28;20030;-72
2022/10/13 00:24:04;;;;;;;5.25;5.05;;;;;;;;;;5006947;28;20025;-72
2022/10/13 00:26:30;;;;;;;5.00;4.80;;;;;;;;;;5001313;28;20646;-72
2022/10/13 00:28:56;;;;;;;5.10;4.90;;;;;;;;;;5006457;28;20038;-71
2022/10/13 00:31:28;;;;;;;5.20;5.00;;;;;;;;;;5002394;28;20113;-71
2022/10/13 00:33:55;;;;;;;5.00;4.80;;;;;;;;;;5004865;28;20031;-72
2022/10/13 00:36:22;;;;;;;4.95;4.75;;;;;;;;;;5003094;28;20061;-71
2022/10/13 00:38:48;;;;;;;5.32;5.03;;;;;;;;;;5007518;28;20092;-72
2022/10/13 00:41:14;;;;;;;5.15;4.95;;;;;;;;;;5000534;28;20607;-72
2022/10/13 00:43:56;;;;;;;5.15;4.95;;;;;;;;;;5010965;28;20692;-72
2022/10/13 00:46:23;;;;;;;5.00;4.80;;;;;;;;;;5003591;28;20072;-71
2022/10/13 00:48:58;;;;;;;4.53;4.32;;;;;;;;;;5004580;28;20561;-72
2022/10/13 00:51:28;;;;;;;4.90;4.70;;;;;;;;;;5008530;28;20037;-72
2022/10/13 00:53:56;;;;;;;4.80;4.60;;;;;;;;;;5007016;28;20072;-72
2022/10/13 00:56:24;;;;;;;4.68;4.47;;;;;;;;;;5006397;28;20069;-71
2022/10/13 00:58:50;;;;;;;4.55;4.35;;;;;;;;;;5007330;28;20356;-72
2022/10/13 01:01:17;;;;;;;4.80;4.60;;;;;;;;;;5005704;28;20421;-71
2022/10/13 01:03:42;;;;;;;5.10;4.90;;;;;;;;;;5008586;28;20501;-72
2022/10/13 01:06:09;;;;;;;4.88;4.68;;;;;;;;;;5008730;28;20034;-72
2022/10/13 01:08:34;;;;;;;4.60;4.40;;;;;;;;;;5010474;28;20037;-72
2022/10/13 01:11:43;;;;;;;4.40;4.20;;;;;;;;;;5001187;28;20043;-72
2022/10/13 01:14:32;;;;;;;4.68;4.47;;;;;;;;;;4975643;28;20057;-71
2022/10/13 01:16:58;;;;;;;;;;;;;;;;;;5001792;28;20653;-72
2022/10/13 01:19:23;;;;;;;5.00;4.80;;;;;;;;;;5005607;28;19939;-70
2022/10/13 01:22:15;;;;;;;5.00;4.80;;;;;;;;;;5000594;28;20109;-72
2022/10/13 01:25:18;;;;;;;4.80;4.60;;;;;;;;;;5003235;28;20413;-72
2022/10/13 01:28:09;;;;;;;4.93;4.72;;;;;;;;;;4940890;29;20035;-72
2022/10/13 01:30:44;;;;;;;5.13;4.93;;;;;;;;;;4949246;28;20034;-71
2022/10/13 01:33:30;;;;;;;5.00;4.80;;;;;;;;;;4948848;28;20039;-71
2022/10/13 01:36:16;;;;;;;5.70;5.45;;;;;;;;;;4941903;28;20133;-72
2022/10/13 01:38:47;;;;;;;4.80;4.60;;;;;;;;;;4934365;28;20078;-71
2022/10/13 01:41:21;;;;;;;4.90;4.70;;;;;;;;;;4945485;28;20035;-71
2022/10/13 01:43:56;;;;;;;4.80;4.60;;;;;;;;;;4942532;29;20453;-71
2022/10/13 01:46:29;;;;;;;4.72;4.53;;;;;;;;;;4942639;29;20032;-72
2022/10/13 01:49:00;;;;;;;4.75;4.55;;;;;;;;;;4947945;28;20031;-71
2022/10/13 01:51:28;;;;;;;5.00;4.80;;;;;;;;;;4949016;29;20051;-71
2022/10/13 01:53:53;;;;;;;5.10;4.90;;;;;;;;;;4945776;29;20113;-71
2022/10/13 01:56:19;;;;;;;4.57;4.38;;;;;;;;;;4947829;28;20478;-71
2022/10/13 01:58:48;;;;;;;4.80;4.60;;;;;;;;;;4952007;28;20114;-71
2022/10/13 02:01:35;;;;;;;4.60;4.40;;;;;;;;;;4943512;29;20113;-72
2022/10/13 02:04:26;;;;;;;4.82;4.63;;;;;;;;;;4971891;28;20482;-71
2022/10/13 02:07:00;;;;;;;4.80;4.60;;;;;;;;;;5007625;28;20754;-72
2022/10/13 02:09:43;;;;;;;4.90;4.70;;;;;;;;;;5008944;28;20030;-71
2022/10/13 02:12:19;;;;;;;4.70;4.50;;;;;;;;;;5008652;28;20042;-72
2022/10/13 02:14:45;;;;;;;4.72;4.53;;;;;;;;;;5003175;28;20046;-71
2022/10/13 02:17:11;;;;;;;4.90;4.70;;;;;;;;;;5004683;28;20517;-72
2022/10/13 02:19:41;;;;;;;4.82;4.63;;;;;;;;;;5000513;28;20109;-72
2022/10/13 02:22:09;;;;;;;4.80;4.60;;;;;;;;;;5002114;28;20698;-71
2022/10/13 02:24:35;;;;;;;5.03;4.82;;;;;;;;;;5003314;28;20034;-72
2022/10/13 02:27:04;;;;;;;4.90;4.70;;;;;;;;;;5002727;28;20036;-71
2022/10/13 02:29:30;;;;;;;5.10;4.90;;;;;;;;;;5005598;28;20045;-72
2022/10/13 02:31:55;;;;;;;5.30;5.10;;;;;;;;;;5001898;28;20387;-72
2022/10/13 02:34:21;;;;;;;6.03;5.72;;;;;;;;;;5002038;28;20055;-71
2022/10/13 02:36:47;;;;;;;5.22;5.03;;;;;;;;;;5004408;28;20085;-72
2022/10/13 02:39:13;;;;;;;5.30;5.10;;;;;;;;;;5009324;28;20033;-72
2022/10/13 02:41:38;;;;;;;5.18;4.97;;;;;;;;;;4994782;28;20512;-72
2022/10/13 02:44:05;;;;;;;5.20;5.00;;;;;;;;;;4998755;28;20121;-72
2022/10/13 02:46:39;;;;;;;5.38;5.18;;;;;;;;;;4998671;28;20044;-72
2022/10/13 02:49:05;;;;;;;5.30;5.10;;;;;;;;;;5002023;28;20718;-71
2022/10/13 02:51:31;;;;;;;5.28;5.07;;;;;;;;;;4999349;28;20033;-72
2022/10/13 02:53:56;;;;;;;5.20;5.00;;;;;;;;;;5004680;28;20045;-72
2022/10/13 02:56:22;;;;;;;5.20;5.00;;;;;;;;;;5001660;28;20040;-72
2022/10/13 02:58:47;;;;;;;5.40;5.20;;;;;;;;;;5005930;28;20026;-71
2022/10/13 03:01:14;;;;;;;5.15;4.95;;;;;;;;;;5004198;28;20052;-70
2022/10/13 03:03:40;;;;;;;5.20;5.00;;;;;;;;;;5000884;28;20119;-71
2022/10/13 03:06:06;;;;;;;5.22;5.03;;;;;;;;;;5002578;28;20653;-71
2022/10/13 03:08:33;;;;;;;5.90;5.47;;;;;;;;;;5003526;28;20036;-72
2022/10/13 03:10:59;;;;;;;4.95;4.75;;;;;;;;;;5004939;28;20492;-71
2022/10/13 03:13:25;;;;;;;5.25;5.05;;;;;;;;;;5006253;28;20559;-71
2022/10/13 03:15:50;;;;;;;5.25;5.05;;;;;;;;;;5002455;28;20030;-71
2022/10/13 03:18:16;;;;;;;5.22;5.03;;;;;;;;;;5005843;28;20033;-71
2022/10/13 03:20:41;;;;;;;5.63;5.35;;;;;;;;;;5001647;28;20037;-72
2022/10/13 03:23:07;;;;;;;5.22;5.03;;;;;;;;;;5005425;28;20129;-70
2022/10/13 03:25:33;;;;;;;5.30;5.10;;;;;;;;;;5002141;28;20034;-71
2022/10/13 03:27:59;;;;;;;5.40;5.20;;;;;;;;;;5002989;28;20124;-70
2022/10/13 03:30:25;;;;;;;5.10;4.90;;;;;;;;;;4995483;28;20038;-72
2022/10/13 03:32:51;;;;;;;5.40;5.20;;;;;;;;;;4997887;28;20432;-71
2022/10/13 03:35:17;;;;;;;5.15;4.95;;;;;;;;;;5002470;28;20034;-71
2022/10/13 03:37:42;;;;;;;5.13;4.93;;;;;;;;;;5003321;28;20529;-72
2022/10/13 03:40:09;;;;;;;8.68;8.10;;;;;;;;;;5002672;28;20031;-72
2022/10/13 03:42:35;;;;;;;5.28;5.07;;;;;;;;;;5003317;28;20393;-71
2022/10/13 03:45:02;;;;;;;5.40;5.20;;;;;;;;;;5002949;28;20041;-71
2022/10/13 03:47:28;;;;;;;4.93;4.72;;;;;;;;;;4999474;28;20042;-71
2022/10/13 03:49:54;;;;;;;5.00;4.80;;;;;;;;;;5000500;28;20046;-71
2022/10/13 03:52:21;;;;;;;5.32;5.13;;;;;;;;;;4996842;28;20040;-71
2022/10/13 03:54:47;;;;;;;5.20;5.00;;;;;;;;;;5003135;28;20116;-71
2022/10/13 03:57:13;;;;;;;5.10;4.90;;;;;;;;;;4999764;28;20118;-71
2022/10/13 03:59:39;;;;;;;5.80;5.50;;;;;;;;;;5001647;28;20476;-72
2022/10/13 04:02:06;;;;;;;5.40;5.20;;;;;;;;;;5001189;28;20041;-72
2022/10/13 04:04:31;;;;;;;5.53;5.32;;;;;;;;;;5000152;28;20113;-72
2022/10/13 04:06:57;;;;;;;5.00;4.80;;;;;;;;;;5001505;28;20061;-72
2022/10/13 04:09:23;;;;;;;5.45;5.25;;;;;;;;;;4998250;28;20133;-72
2022/10/13 04:11:50;;;;;;;5.40;5.20;;;;;;;;;;5003011;28;20030;-72
2022/10/13 04:14:15;;;;;;;5.30;5.10;;;;;;;;;;5002852;28;20109;-71
2022/10/13 04:16:41;;;;;;;5.40;5.20;;;;;;;;;;5011478;28;20154;-72
2022/10/13 04:19:07;;;;;;;5.43;5.22;;;;;;;;;;5001190;28;20042;-72
2022/10/13 04:21:34;;;;;;;5.85;5.55;;;;;;;;;;5009181;28;20569;-71
2022/10/13 04:24:00;;;;;;;5.32;5.13;;;;;;;;;;5009869;28;20041;-71
2022/10/13 04:26:28;;;;;;;5.40;5.20;;;;;;;;;;5007322;28;20026;-71
2022/10/13 04:28:54;;;;;;;5.30;5.10;;;;;;;;;;5004301;28;20034;-72
2022/10/13 04:31:21;;;;;;;5.55;5.35;;;;;;;;;;5006179;28;20097;-72
2022/10/13 04:33:48;;;;;;;5.70;5.40;;;;;;;;;;5005497;28;20053;-71
2022/10/13 04:36:15;;;;;;;5.30;5.10;;;;;;;;;;5007257;28;20029;-72
2022/10/13 04:38:41;;;;;;;5.50;5.30;;;;;;;;;;5003967;28;20494;-72
2022/10/13 04:41:08;;;;;;;5.35;5.15;;;;;;;;;;5000173;28;20136;-72
2022/10/13 04:43:34;;;;;;;5.90;5.60;;;;;;;;;;5002505;28;20040;-72
2022/10/13 04:46:01;;;;;;;5.30;5.10;;;;;;;;;;5006712;28;20109;-72
2022/10/13 04:48:27;;;;;;;5.60;5.40;;;;;;;;;;5009160;28;20034;-72
2022/10/13 04:51:10;;;;;;;5.30;5.10;;;;;;;;;;5006801;28;20177;-72
2022/10/13 04:53:36;;;;;;;5.82;5.53;;;;;;;;;;5002772;28;20446;-71
2022/10/13 04:56:08;;;;;;;5.55;5.35;;;;;;;;;;5002348;28;20030;-72
2022/10/13 04:58:35;;;;;;;5.80;5.50;;;;;;;;;;5003066;28;20105;-71
2022/10/13 05:01:03;;;;;;;5.50;5.30;;;;;;;;;;5005847;28;20044;-71
2022/10/13 05:03:29;;;;;;;5.50;5.30;;;;;;;;;;5004339;28;20506;-72
2022/10/13 05:05:55;;;;;;;5.85;5.55;;;;;;;;;;5002092;28;20466;-71
2022/10/13 05:08:21;;;;;;;5.82;5.53;;;;;;;;;;5004912;28;20041;-72
2022/10/13 05:10:59;;;;;;;5.78;5.47;;;;;;;;;;5009907;28;20208;-71
2022/10/13 05:13:26;;;;;;;5.90;5.60;;;;;;;;;;5003856;28;20345;-72
2022/10/13 05:15:56;;;;;;;5.60;5.35;;;;;;;;;;5001314;28;20637;-71
2022/10/13 05:18:22;;;;;;;6.90;6.50;;;;;;;;;;5001473;28;20416;-72
2022/10/13 05:20:48;;;;;;;6.63;6.20;;;;;;;;;;4999162;28;20037;-72
2022/10/13 05:23:14;;;;;;;5.45;5.25;;;;;;;;;;5000090;28;20084;-71
2022/10/13 05:25:40;;;;;;;5.70;5.40;;;;;;;;;;5002553;28;20045;-72
2022/10/13 05:28:09;;;;;;;;;;;;;;;;;;5003975;28;20411;-72
2022/10/13 05:30:34;;;;;;;5.88;5.57;;;;;;;;;;5001016;28;19913;-72
2022/10/13 05:33:00;;;;;;;5.80;5.50;;;;;;;;;;5001912;28;20117;-72
2022/10/13 05:35:26;;;;;;;5.50;5.30;;;;;;;;;;5002295;28;20116;-72
2022/10/13 05:37:52;;;;;;;5.65;5.40;;;;;;;;;;5005211;28;20033;-72
2022/10/13 05:40:20;;;;;;;5.50;5.30;;;;;;;;;;4999024;28;20077;-72
2022/10/13 05:42:47;;;;;;;5.70;5.40;;;;;;;;;;5006590;28;20099;-72
2022/10/13 05:45:15;;;;;;;5.70;5.40;;;;;;;;;;5001129;28;20046;-72
2022/10/13 05:47:41;;;;;;;5.53;5.32;;;;;;;;;;4999164;28;20034;-71
2022/10/13 05:50:07;;;;;;;5.45;5.25;;;;;;;;;;4999201;28;20041;-72
2022/10/13 05:52:33;;;;;;;5.65;5.40;;;;;;;;;;5008116;28;20038;-71
2022/10/13 05:55:01;;;;;;;5.50;5.30;;;;;;;;;;5011023;28;20033;-72
2022/10/13 05:57:33;;;;;;;6.10;5.80;;;;;;;;;;5002106;28;20030;-71
2022/10/13 06:00:03;;;;;;;6.15;5.85;;;;;;;;;;4999882;28;20129;-72
2022/10/13 06:03:22;;;;;;;5.83;5.53;;;;;;;;;;5004973;28;20086;-72
2022/10/13 06:05:47;;;;;;;5.43;5.22;;;;;;;;;;4919822;29;20063;-72
2022/10/13 06:08:14;;;;;;;5.90;5.60;;;;;;;;;;4927481;29;20043;-73
2022/10/13 06:10:41;;;;;;;5.70;5.40;;;;;;;;;;4924792;29;20052;-72
2022/10/13 06:13:06;;;;;;;6.20;5.90;;;;;;;;;;4928762;29;20147;-72
2022/10/13 06:15:32;;;;;;;6.07;5.78;;;;;;;;;;4934758;28;20048;-71
2022/10/13 06:17:58;;;;;;;5.50;5.30;;;;;;;;;;4924238;29;20127;-71
2022/10/13 06:20:23;;;;;;;5.70;5.47;;;;;;;;;;4926985;29;20044;-72
2022/10/13 06:22:49;;;;;;;5.43;5.22;;;;;;;;;;4924532;29;20048;-71
2022/10/13 06:25:15;;;;;;;6.00;5.70;;;;;;;;;;4922649;29;20093;-72
2022/10/13 06:27:42;;;;;;;5.20;5.00;;;;;;;;;;4923451;29;20480;-73
2022/10/13 06:30:08;;;;;;;5.50;5.30;;;;;;;;;;4921934;29;20746;-72
2022/10/13 06:32:35;;;;;;;5.10;4.90;;;;;;;;;;4922558;29;20044;-72
2022/10/13 06:35:01;;;;;;;5.43;5.22;;;;;;;;;;4925486;29;20047;-72
2022/10/13 06:37:26;;;;;;;5.68;5.43;;;;;;;;;;4989786;28;20049;-71
2022/10/13 06:39:52;;;;;;;6.00;5.70;;;;;;;;;;5001435;28;20033;-71
2022/10/13 06:42:17;;;;;;;5.85;5.55;;;;;;;;;;4999639;28;20041;-72
2022/10/13 06:44:43;;;;;;;5.45;5.25;;;;;;;;;;4996918;28;20041;-72
2022/10/13 06:47:09;;;;;;;5.60;5.38;;;;;;;;;;4998988;28;20057;-72
2022/10/13 06:49:34;;;;;;;5.80;5.50;;;;;;;;;;4998025;28;20043;-72
2022/10/13 06:52:00;;;;;;;5.70;5.40;;;;;;;;;;4997943;28;20084;-71
2022/10/13 06:54:25;;;;;;;6.20;5.90;;;;;;;;;;5000326;28;20089;-72
2022/10/13 06:56:51;;;;;;;6.50;6.20;;;;;;;;;;5001311;28;20033;-71
2022/10/13 06:59:17;;;;;;;5.90;5.60;;;;;;;;;;4996923;28;20038;-72
2022/10/13 07:01:44;;;;;;;5.80;5.50;;;;;;;;;;4999986;28;20037;-72
2022/10/13 07:04:11;;;;;;;5.70;5.40;;;;;;;;;;5000654;28;20669;-70
2022/10/13 07:06:37;;;;;;;5.78;5.47;;;;;;;;;;4998872;28;20045;-70
2022/10/13 07:09:06;;;;;;;6.13;5.65;;;;;;;;;;4997036;28;20532;-70
2022/10/13 07:11:32;;;;;;;6.18;5.88;;;;;;;;;;4995721;28;20041;-72
2022/10/13 07:13:58;;;;;;;6.13;5.82;;;;;;;;;;5000606;28;20034;-72
2022/10/13 07:16:24;;;;;;;5.95;5.65;;;;;;;;;;4997481;28;20037;-71
2022/10/13 07:18:50;;;;;;;5.60;5.30;;;;;;;;;;4997831;28;20075;-71
2022/10/13 07:21:15;;;;;;;5.53;5.32;;;;;;;;;;4996516;28;20049;-71
2022/10/13 07:23:41;;;;;;;5.55;5.35;;;;;;;;;;4999796;28;20031;-71
2022/10/13 07:26:10;;;;;;;5.53;5.32;;;;;;;;;;4994424;28;20470;-70
2022/10/13 07:28:36;;;;;;;5.73;5.43;;;;;;;;;;4995030;28;20506;-71
2022/10/13 07:31:09;;;;;;;6.00;5.70;;;;;;;;;;4993194;28;20064;-70
2022/10/13 07:33:36;;;;;;;5.47;5.28;;;;;;;;;;4999282;28;20049;-69
2022/10/13 07:36:03;;;;;;;5.75;5.45;;;;;;;;;;4997659;28;20055;-69
2022/10/13 07:38:28;;;;;;;6.00;5.70;;;;;;;;;;5000600;28;20542;-69
2022/10/13 07:40:54;;;;;;;5.82;5.53;;;;;;;;;;4995585;28;20062;-70
2022/10/13 07:43:19;;;;;;;5.40;5.20;;;;;;;;;;4999586;28;20673;-71
2022/10/13 07:45:45;;;;;;;5.20;5.00;;;;;;;;;;5001362;28;20026;-71
2022/10/13 07:48:11;;;;;;;5.47;5.28;;;;;;;;;;5000894;28;20034;-71
2022/10/13 07:50:37;;;;;;;6.00;5.70;;;;;;;;;;5005388;28;20685;-70
2022/10/13 07:53:02;;;;;;;6.20;5.90;;;;;;;;;;5004071;28;20049;-69
2022/10/13 07:55:28;;;;;;;5.80;5.50;;;;;;;;;;5003699;28;20060;-71
2022/10/13 07:57:54;;;;;;;5.90;5.60;;;;;;;;;;5001523;28;20033;-71
2022/10/13 08:00:20;;;;;;;6.45;6.15;;;;;;;;;;5003344;28;20053;-71
2022/10/13 08:02:49;;;;;;;5.93;5.63;;;;;;;;;;5002443;28;20048;-71
2022/10/13 08:05:15;;;;;;;6.07;5.78;;;;;;;;;;5000240;28;20554;-71
2022/10/13 08:07:40;;;;;;;5.90;5.60;;;;;;;;;;4996146;28;20029;-71
2022/10/13 08:10:07;;;;;;;5.90;5.60;;;;;;;;;;5003238;28;20030;-71
2022/10/13 08:12:34;;;;;;;5.70;5.40;;;;;;;;;;5004853;28;20034;-71
2022/10/13 08:15:00;;;;;;;5.85;5.55;;;;;;;;;;5009605;28;20486;-68
2022/10/13 08:17:25;;;;;;;5.88;5.57;;;;;;;;;;5003373;28;20042;-69
2022/10/13 08:19:51;;;;;;;6.28;5.97;;;;;;;;;;4993755;28;20038;-72
2022/10/13 08:22:18;;;;;;;5.70;5.40;;;;;;;;;;5001555;28;20045;-69
2022/10/13 08:24:44;;;;;;;5.90;5.60;;;;;;;;;;5006251;28;20030;-70
2022/10/13 08:27:20;;;;;;;5.90;5.60;;;;;;;;;;5002654;28;20037;-72
2022/10/13 08:29:45;;;;;;;6.00;5.70;;;;;;;;;;5003239;28;20156;-72
2022/10/13 08:32:11;;;;;;;6.30;6.00;;;;;;;;;;5001498;28;20027;-70
2022/10/13 08:34:37;;;;;;;5.97;5.68;;;;;;;;;;5002253;28;20038;-71
2022/10/13 08:37:03;;;;;;;6.07;5.78;;;;;;;;;;5002943;28;20080;-69
2022/10/13 08:39:29;;;;;;;6.15;5.85;;;;;;;;;;4999718;28;20041;-70
2022/10/13 08:41:56;;;;;;;6.07;5.78;;;;;;;;;;4996532;28;20119;-71
2022/10/13 08:44:25;;;;;;;6.03;5.72;;;;;;;;;;5001053;28;20037;-71
2022/10/13 08:47:04;;;;;;;6.00;5.70;;;;;;;;;;5003194;28;20536;-70
2022/10/13 08:49:30;;;;;;;6.00;5.70;;;;;;;;;;5001753;28;20527;-71
2022/10/13 08:51:57;;;;;;;6.22;5.93;;;;;;;;;;5001434;28;20069;-71
2022/10/13 08:54:23;;;;;;;6.25;5.95;;;;;;;;;;4999794;28;20661;-69
2022/10/13 08:56:50;;;;;;;6.00;5.70;;;;;;;;;;5004009;28;20033;-69
2022/10/13 08:59:17;;;;;;;6.30;6.00;;;;;;;;;;5001939;28;20037;-68
2022/10/13 09:01:52;;;;;;;6.82;6.53;;;;;;;;;;5003849;28;20518;-71
2022/10/13 09:04:35;;;;;;;6.60;6.30;;;;;;;;;;5000958;28;20045;-71
2022/10/13 09:07:15;;;;;;;6.32;6.03;;;;;;;;;;5003433;28;20030;-71
2022/10/13 09:09:41;;;;;;;7.10;6.70;;;;;;;;;;4998258;28;20041;-70
2022/10/13 09:12:12;;;;;;;6.20;5.90;;;;;;;;;;5013693;28;20117;-71
2022/10/13 09:15:04;;;;;;;6.10;5.80;;;;;;;;;;5004370;28;20030;-71
2022/10/13 09:17:41;;;;;;;6.32;6.03;;;;;;;;;;4999349;28;20054;-72
2022/10/13 09:20:26;;;;;;;5.57;5.38;;;;;;;;;;4997635;28;20034;-71
2022/10/13 09:23:21;;;;;;;6.30;6.00;;;;;;;;;;5005079;28;20030;-72
2022/10/13 09:25:49;;;;;;;6.20;5.90;;;;;;;;;;4997600;28;20033;-70
2022/10/13 09:28:22;;;;;;;6.53;6.23;;;;;;;;;;5000114;28;20057;-72
2022/10/13 09:31:00;;;;;;;6.45;6.15;;;;;;;;;;4994538;28;20061;-71
2022/10/13 09:33:26;;;;;;;5.85;5.55;;;;;;;;;;5004152;28;20042;-71
2022/10/13 09:35:57;;;;;;;5.80;5.50;;;;;;;;;;4997952;28;20073;-72
2022/10/13 09:38:24;;;;;;;5.75;5.45;;;;;;;;;;5001559;28;20060;-68
2022/10/13 09:41:00;;;;;;;5.55;5.35;;;;;;;;;;4999796;28;20042;-71
2022/10/13 09:43:34;;;;;;;6.80;6.50;;;;;;;;;;5000215;28;20034;-69
2022/10/13 09:46:03;;;;;;;7.00;6.60;;;;;;;;;;4997870;28;20052;-69
2022/10/13 09:48:34;;;;;;;5.50;5.30;;;;;;;;;;5002965;28;20044;-71
2022/10/13 09:50:59;;;;;;;5.70;5.40;;;;;;;;;;5002590;28;20057;-70
2022/10/13 09:53:39;;;;;;;5.82;5.53;;;;;;;;;;4999849;28;20084;-69
2022/10/13 09:56:34;;;;;;;6.28;5.97;;;;;;;;;;4999836;28;20037;-71
2022/10/13 09:59:09;;;;;;;6.22;5.93;;;;;;;;;;5000731;28;20046;-70
2022/10/13 10:01:39;;;;;;;5.95;5.65;;;;;;;;;;4999054;28;20401;-71
2022/10/13 10:04:12;;;;;;;5.90;5.60;;;;;;;;;;4991796;28;20057;-71
2022/10/13 10:06:39;;;;;;;5.90;5.60;;;;;;;;;;4997694;28;20113;-69
2022/10/13 10:09:23;;;;;;;5.97;5.68;;;;;;;;;;4995804;28;20085;-71
2022/10/13 10:11:52;;;;;;;6.13;5.63;;;;;;;;;;4999647;28;20041;-71
2022/10/13 10:14:34;;;;;;;5.80;5.50;;;;;;;;;;4998491;28;20038;-71
2022/10/13 10:17:19;;;;;;;5.40;5.20;;;;;;;;;;4997155;28;20039;-70
2022/10/13 10:20:06;;;;;;;5.30;5.10;;;;;;;;;;4996332;28;20038;-71
2022/10/13 10:22:53;;;;;;;;;;;;;;;;;;4997658;28;20036;-72
2022/10/13 10:25:39;;;;;;;4.50;4.30;;;;;;;;;;4996192;28;19960;-67
2022/10/13 10:28:52;;;;;;;5.68;5.40;;;;;;;;;;5003299;28;20068;-67
2022/10/13 10:31:20;;;;;;;5.07;4.88;;;;;;;;;;4923038;29;20039;-70
2022/10/13 10:34:25;;;;;;;5.78;5.47;;;;;;;;;;4911169;29;20064;-70
2022/10/13 10:36:55;;;;;;;5.78;5.47;;;;;;;;;;4921668;29;20048;-69
2022/10/13 10:39:46;;;;;;;6.00;5.70;;;;;;;;;;4919647;29;20039;-70
2022/10/13 10:42:22;;;;;;;6.20;5.90;;;;;;;;;;4922741;29;20123;-70
2022/10/13 10:44:52;;;;;;;5.90;5.60;;;;;;;;;;4920797;29;20602;-70
2022/10/13 10:47:23;;;;;;;4.90;4.70;;;;;;;;;;4919564;29;20122;-70
2022/10/13 10:49:54;;;;;;;5.57;5.35;;;;;;;;;;4917442;29;20634;-67
2022/10/13 10:52:27;;;;;;;5.57;5.35;;;;;;;;;;4908094;29;20055;-67
2022/10/13 10:55:28;;;;;;;6.00;5.70;;;;;;;;;;4924509;29;20048;-70
2022/10/13 10:58:03;;;;;;;6.03;5.72;;;;;;;;;;4917614;29;20071;-70
2022/10/13 11:00:38;;;;;;;6.50;6.20;;;;;;;;;;4922185;29;20488;-70
2022/10/13 11:03:20;;;;;;;5.90;5.60;;;;;;;;;;4996153;28;20041;-71
2022/10/13 11:06:21;;;;;;;5.30;5.10;;;;;;;;;;4997798;28;20062;-71
2022/10/13 11:08:48;;;;;;;5.82;5.53;;;;;;;;;;4995057;28;20076;-69
2022/10/13 11:11:24;;;;;;;5.97;5.68;;;;;;;;;;4996229;28;20084;-71
2022/10/13 11:14:01;;;;;;;6.20;5.90;;;;;;;;;;5001915;28;20034;-72
2022/10/13 11:16:58;;;;;;;5.80;5.50;;;;;;;;;;4994261;28;20401;-72
2022/10/13 11:19:34;;;;;;;5.60;5.40;;;;;;;;;;4995297;28;20173;-72
2022/10/13 11:21:59;;;;;;;5.63;5.40;;;;;;;;;;4995685;28;20116;-70
2022/10/13 11:24:40;;;;;;;5.57;5.38;;;;;;;;;;5002993;28;20046;-70
2022/10/13 11:27:14;;;;;;;5.75;5.45;;;;;;;;;;5006336;28;20141;-69
2022/10/13 11:29:45;;;;;;;6.05;5.75;;;;;;;;;;5008870;28;20033;-72
2022/10/13 11:32:26;;;;;;;5.80;5.50;;;;;;;;;;5003042;28;20121;-70
2022/10/13 11:35:01;;;;;;;5.84;5.54;;;;;;;;;;4125622;28;10001733;-69
2022/10/13 11:37:34;;;;;;;6.00;5.70;;;;;;;;;;5028249;28;20030;-70
2022/10/13 11:40:15;;;;;;;5.90;5.60;;;;;;;;;;5022973;28;20037;-72
2022/10/13 11:42:47;;;;;;;5.80;5.50;;;;;;;;;;5024869;28;20486;-71
2022/10/13 11:45:37;;;;;;;5.78;5.47;;;;;;;;;;5025939;28;20064;-72
2022/10/13 11:48:30;;;;;;;5.72;5.43;;;;;;;;;;5024568;28;20036;-72
2022/10/13 11:51:30;;;;;;;5.72;5.43;;;;;;;;;;5024380;28;20033;-72
2022/10/13 11:54:10;;;;;;;5.70;5.43;;;;;;;;;;5023986;28;20045;-71
2022/10/13 11:56:48;;;;;;;5.50;5.30;;;;;;;;;;5023941;28;20046;-69
2022/10/13 11:59:25;;;;;;;5.50;5.30;;;;;;;;;;5018404;28;20538;-71
2022/10/13 12:02:09;;;;;;;5.60;5.30;;;;;;;;;;5027881;28;20115;-72
2022/10/13 12:04:37;;;;;;;5.35;5.15;;;;;;;;;;5028722;28;20029;-71
2022/10/13 12:07:06;;;;;;;5.70;5.40;;;;;;;;;;5021500;28;20108;-72
2022/10/13 12:09:35;;;;;;;5.63;5.40;;;;;;;;;;5026167;28;20048;-72
2022/10/13 12:12:06;;;;;;;5.75;5.47;;;;;;;;;;5022423;28;20061;-70
2022/10/13 12:14:38;;;;;;;5.10;4.90;;;;;;;;;;5025891;28;20500;-72
2022/10/13 12:17:17;;;;;;;5.20;5.00;;;;;;;;;;5018028;28;20440;-71
2022/10/13 12:19:43;;;;;;;5.70;5.40;;;;;;;;;;5027597;28;20493;-71
2022/10/13 12:22:12;;;;;;;5.75;5.45;;;;;;;;;;5023883;28;20041;-71
2022/10/13 12:24:40;;;;;;;5.50;5.30;;;;;;;;;;5026098;28;20064;-72
2022/10/13 12:27:18;;;;;;;5.80;5.50;;;;;;;;;;5020345;28;20524;-71
2022/10/13 12:29:44;;;;;;;5.50;5.30;;;;;;;;;;5023929;28;20048;-71
2022/10/13 12:32:47;;;;;;;5.25;5.05;;;;;;;;;;5023459;28;20386;-71
2022/10/13 12:35:21;;;;;;;5.40;5.20;;;;;;;;;;4967339;28;20042;-72
2022/10/13 12:37:47;;;;;;;5.90;5.60;;;;;;;;;;4964511;28;20091;-70
2022/10/13 12:40:15;;;;;;;6.65;6.25;;;;;;;;;;4956695;28;20138;-71
2022/10/13 12:42:42;;;;;;;5.72;5.43;;;;;;;;;;4933234;28;20098;-71
2022/10/13 12:45:14;;;;;;;4.97;4.78;;;;;;;;;;4964992;28;20051;-70
2022/10/13 12:47:43;;;;;;;5.78;5.47;;;;;;;;;;4961320;28;20801;-72
2022/10/13 12:50:24;;;;;;;5.40;5.20;;;;;;;;;;4962652;28;20376;-71
2022/10/13 12:52:55;;;;;;;5.78;5.47;;;;;;;;;;4961880;28;20054;-71
2022/10/13 12:55:22;;;;;;;5.53;5.32;;;;;;;;;;4960744;28;20580;-71
2022/10/13 12:57:49;;;;;;;6.85;6.45;;;;;;;;;;4964424;28;20050;-71
2022/10/13 13:00:18;;;;;;;5.50;5.30;;;;;;;;;;4961876;28;20038;-70
2022/10/13 13:02:58;;;;;;;5.50;5.30;;;;;;;;;;4955266;28;20515;-70
2022/10/13 13:05:44;;;;;;;5.78;5.47;;;;;;;;;;4963846;28;20081;-71
2022/10/13 13:08:30;;;;;;;5.53;5.32;;;;;;;;;;4961452;28;20047;-70
2022/10/13 13:11:01;;;;;;;5.28;5.07;;;;;;;;;;4988865;28;20060;-72
2022/10/13 13:13:28;;;;;;;5.50;5.30;;;;;;;;;;5018399;28;20034;-71
2022/10/13 13:16:12;;;;;;;6.05;5.75;;;;;;;;;;5016590;28;20026;-72
2022/10/13 13:18:40;;;;;;;6.55;6.25;;;;;;;;;;5018880;28;20172;-71
2022/10/13 13:21:10;;;;;;;6.17;5.87;;;;;;;;;;5017830;28;20501;-72
2022/10/13 13:23:40;;;;;;;5.75;5.45;;;;;;;;;;5017515;28;20042;-71
2022/10/13 13:26:18;;;;;;;5.60;5.40;;;;;;;;;;5013728;28;20026;-71
2022/10/13 13:28:45;;;;;;;5.80;5.50;;;;;;;;;;5016448;28;20040;-72
2022/10/13 13:31:14;;;;;;;5.90;5.60;;;;;;;;;;5016955;28;20061;-72
2022/10/13 13:33:39;;;;;;;5.70;5.40;;;;;;;;;;5021362;28;20045;-71
2022/10/13 13:36:25;;;;;;;6.20;5.90;;;;;;;;;;5017571;28;20092;-70
2022/10/13 13:38:52;;;;;;;5.90;5.60;;;;;;;;;;5019288;28;20038;-71
2022/10/13 13:41:18;;;;;;;6.15;5.85;;;;;;;;;;5018215;28;20034;-70
2022/10/13 13:43:44;;;;;;;5.90;5.60;;;;;;;;;;5017673;28;20039;-71
2022/10/13 13:46:39;;;;;;;6.07;5.78;;;;;;;;;;5014125;28;20109;-71
2022/10/13 13:49:05;;;;;;;6.00;5.70;;;;;;;;;;4948392;28;20483;-71
2022/10/13 13:51:30;;;;;;;6.28;5.97;;;;;;;;;;4964440;28;20042;-72
2022/10/13 13:53:56;;;;;;;5.88;5.57;;;;;;;;;;4963938;28;20134;-72
2022/10/13 13:56:22;;;;;;;5.43;5.22;;;;;;;;;;4964435;28;20409;-70
2022/10/13 13:58:47;;;;;;;5.80;5.50;;;;;;;;;;4962667;28;20049;-72
2022/10/13 14:01:13;;;;;;;6.10;5.80;;;;;;;;;;4966215;28;20047;-69
2022/10/13 14:03:39;;;;;;;6.55;6.25;;;;;;;;;;4964669;28;20046;-71
2022/10/13 14:06:07;;;;;;;6.13;5.82;;;;;;;;;;4963841;28;20046;-68
2022/10/13 14:08:40;;;;;;;6.35;6.05;;;;;;;;;;4964532;28;20053;-69
2022/10/13 14:11:06;;;;;;;6.10;5.80;;;;;;;;;;4964469;28;20067;-71
2022/10/13 14:13:32;;;;;;;5.75;5.45;;;;;;;;;;4962454;28;20063;-71
2022/10/13 14:15:59;;;;;;;5.90;5.60;;;;;;;;;;4960094;28;20030;-71
2022/10/13 14:18:25;;;;;;;6.38;6.07;;;;;;;;;;4963968;28;20046;-72
2022/10/13 14:20:50;;;;;;;6.28;5.97;;;;;;;;;;4962868;28;20121;-70
2022/10/13 14:23:16;;;;;;;6.55;6.03;;;;;;;;;;4963536;28;20074;-71
2022/10/13 14:25:42;;;;;;;6.10;5.80;;;;;;;;;;4990212;28;20057;-72
2022/10/13 14:28:08;;;;;;;6.03;5.72;;;;;;;;;;5019276;28;20041;-71
2022/10/13 14:30:34;;;;;;;5.80;5.50;;;;;;;;;;5019439;28;20496;-71
2022/10/13 14:33:00;;;;;;;6.10;5.80;;;;;;;;;;5018399;28;20065;-70
2022/10/13 14:35:27;;;;;;;6.25;5.95;;;;;;;;;;5014144;28;20037;-70
2022/10/13 14:37:52;;;;;;;6.22;5.93;;;;;;;;;;5020820;28;20096;-72
2022/10/13 14:40:18;;;;;;;5.90;5.60;;;;;;;;;;5012532;28;20778;-69
2022/10/13 14:42:43;;;;;;;6.20;5.90;;;;;;;;;;5016321;28;20140;-71
2022/10/13 14:45:14;;;;;;;5.90;5.60;;;;;;;;;;5017758;28;20038;-70
2022/10/13 14:47:40;;;;;;;6.00;5.70;;;;;;;;;;5017231;28;20037;-71
2022/10/13 14:50:07;;;;;;;6.05;5.75;;;;;;;;;;5012776;28;20543;-71
2022/10/13 14:52:33;;;;;;;5.60;5.40;;;;;;;;;;5018145;28;20065;-69
2022/10/13 14:54:58;;;;;;;6.18;5.88;;;;;;;;;;5014444;28;20187;-72
2022/10/13 14:57:24;;;;;;;6.30;6.00;;;;;;;;;;5018527;28;20124;-70
2022/10/13 14:59:49;;;;;;;6.10;5.80;;;;;;;;;;5019286;28;20133;-71
2022/10/13 15:02:16;;;;;;;5.90;5.60;;;;;;;;;;5019309;28;20040;-71
2022/10/13 15:04:50;;;;;;;5.30;5.10;;;;;;;;;;5018502;28;20092;-71